Time;durP1;ratioP1;P1;durP2;ratioP2;P2;SDS_P1;SDS_P2;PMS_P1;PMS_P2;Temp;Humidity;BMP_temperature;BMP_pressure;BME280_temperature;BME280_humidity;BME280_pressure;Samples;Min_cycle;Max_cycle;Signal;HPM_P1;HPM_P2
2024/03/08 00:00:33;;;;;;;32.67;16.70;;;1.90;99.90;;;;;;5033973;28;20881;-68
2024/03/08 00:03:02;;;;;;;28.43;16.30;;;2.00;99.90;;;;;;5043584;28;20451;-67
2024/03/08 00:05:31;;;;;;;29.97;16.20;;;2.00;99.90;;;;;;5050464;28;20898;-68
2024/03/08 00:07:59;;;;;;;29.17;14.67;;;2.00;99.90;;;;;;5044405;28;20482;-68
2024/03/08 00:10:29;;;;;;;32.67;16.30;;;1.90;99.90;;;;;;5044249;28;20448;-68
2024/03/08 00:12:57;;;;;;;28.90;15.47;;;1.90;99.90;;;;;;5044154;28;20452;-67
2024/03/08 00:15:26;;;;;;;29.97;15.30;;;1.90;99.90;;;;;;5045921;28;20573;-67
2024/03/08 00:17:54;;;;;;;31.20;16.27;;;1.90;99.90;;;;;;5045828;28;20452;-68
2024/03/08 00:20:23;;;;;;;30.53;15.77;;;1.90;99.90;;;;;;5045348;28;20515;-68
2024/03/08 00:22:51;;;;;;;28.07;13.60;;;1.80;99.90;;;;;;5038899;28;20476;-68
2024/03/08 00:25:19;;;;;;;32.27;16.10;;;1.70;99.90;;;;;;5046626;28;20862;-67
2024/03/08 00:27:49;;;;;;;33.57;17.60;;;1.70;99.90;;;;;;5046099;28;20451;-68
2024/03/08 00:30:18;;;;;;;29.23;15.67;;;1.80;99.90;;;;;;5046013;28;20460;-68
2024/03/08 00:32:46;;;;;;;25.50;14.17;;;1.80;99.90;;;;;;5046607;28;20432;-67
2024/03/08 00:35:14;;;;;;;32.23;16.20;;;1.80;99.90;;;;;;5046127;28;20486;-68
2024/03/08 00:37:42;;;;;;;29.33;14.85;;;1.70;99.90;;;;;;5049184;28;20450;-68
2024/03/08 00:40:10;;;;;;;32.65;15.23;;;1.70;99.90;;;;;;5048881;28;20291;-68
2024/03/08 00:42:39;;;;;;;31.55;14.73;;;1.70;99.90;;;;;;5048735;28;20801;-66
2024/03/08 00:45:10;;;;;;;34.95;17.08;;;1.60;99.90;;;;;;5048743;28;20244;-68
2024/03/08 00:47:39;;;;;;;29.67;15.25;;;1.50;99.90;;;;;;5046187;28;20232;-68
2024/03/08 00:50:08;;;;;;;30.30;16.55;;;1.50;99.90;;;;;;5047510;28;20708;-68
2024/03/08 00:52:36;;;;;;;28.20;14.13;;;1.50;99.90;;;;;;5048422;28;20203;-68
2024/03/08 00:55:05;;;;;;;31.87;15.43;;;1.40;99.90;;;;;;5048754;28;20224;-67
2024/03/08 00:57:33;;;;;;;29.60;16.23;;;1.30;99.90;;;;;;5048962;28;20443;-68
2024/03/08 01:00:03;;;;;;;31.50;15.70;;;1.20;99.90;;;;;;5048153;28;21139;-67
2024/03/08 01:02:34;;;;;;;31.93;16.53;;;1.10;99.90;;;;;;5045989;28;20981;-68
2024/03/08 01:05:03;;;;;;;30.48;16.13;;;1.20;99.90;;;;;;5048477;28;20447;-69
2024/03/08 01:07:31;;;;;;;39.10;16.55;;;1.30;99.90;;;;;;5048255;28;20249;-67
2024/03/08 01:10:00;;;;;;;28.83;14.02;;;1.30;99.90;;;;;;5048708;28;20228;-68
2024/03/08 01:12:29;;;;;;;34.83;16.13;;;1.30;99.90;;;;;;5048908;28;20214;-68
2024/03/08 01:14:58;;;;;;;33.13;16.15;;;1.20;99.90;;;;;;5049159;28;20219;-68
2024/03/08 01:17:26;;;;;;;31.55;15.93;;;1.10;99.90;;;;;;5044512;28;20206;-67
2024/03/08 01:19:56;;;;;;;31.98;15.32;;;1.10;99.90;;;;;;5051791;28;20349;-67
2024/03/08 01:22:24;;;;;;;35.60;16.38;;;1.20;99.90;;;;;;5047182;28;20246;-67
2024/03/08 01:24:52;;;;;;;35.20;16.45;;;1.20;99.90;;;;;;5047005;28;20289;-67
2024/03/08 01:27:19;;;;;;;33.67;16.98;;;1.20;99.90;;;;;;5047432;28;20467;-68
2024/03/08 01:29:47;;;;;;;32.78;16.10;;;1.10;99.90;;;;;;5047833;28;20251;-68
2024/03/08 01:32:16;;;;;;;29.98;14.45;;;0.90;99.90;;;;;;5047694;28;20690;-67
2024/03/08 01:34:45;;;;;;;33.42;16.90;;;0.80;99.90;;;;;;5048985;28;20226;-67
2024/03/08 01:37:14;;;;;;;37.22;16.27;;;0.70;99.90;;;;;;5047524;28;20202;-68
2024/03/08 01:39:42;;;;;;;30.77;16.85;;;0.70;99.90;;;;;;5047644;28;20669;-68
2024/03/08 01:42:11;;;;;;;34.25;16.13;;;0.80;99.90;;;;;;5046769;28;20298;-67
2024/03/08 01:44:39;;;;;;;34.45;16.58;;;0.70;99.90;;;;;;5045357;28;20199;-68
2024/03/08 01:47:08;;;;;;;28.53;15.20;;;0.70;99.90;;;;;;5046782;28;20746;-67
2024/03/08 01:49:36;;;;;;;35.60;18.23;;;0.80;99.90;;;;;;5047844;28;20466;-67
2024/03/08 01:52:04;;;;;;;28.20;13.60;;;0.90;99.90;;;;;;5048465;28;20205;-68
2024/03/08 01:54:35;;;;;;;31.73;15.98;;;0.60;99.90;;;;;;5048807;28;20669;-67
2024/03/08 01:57:03;;;;;;;37.40;16.60;;;0.70;99.90;;;;;;5048394;28;20260;-68
2024/03/08 01:59:31;;;;;;;30.25;14.80;;;0.70;99.90;;;;;;5042545;28;20824;-67
2024/03/08 02:02:02;;;;;;;28.77;14.10;;;0.50;99.90;;;;;;5048321;28;20216;-68
2024/03/08 02:04:31;;;;;;;33.92;17.88;;;0.50;99.90;;;;;;5048164;28;20224;-67
2024/03/08 02:07:00;;;;;;;36.50;16.52;;;0.60;99.90;;;;;;5049054;28;20209;-67
2024/03/08 02:09:28;;;;;;;32.50;16.60;;;0.60;99.90;;;;;;5044871;28;20230;-67
2024/03/08 02:11:58;;;;;;;35.90;16.00;;;0.80;99.90;;;;;;5045307;28;20262;-67
2024/03/08 02:14:26;;;;;;;31.98;15.13;;;0.80;99.90;;;;;;5047624;28;20214;-67
2024/03/08 02:16:57;;;;;;;29.42;13.90;;;0.80;99.90;;;;;;5047404;28;20230;-67
2024/03/08 02:19:25;;;;;;;36.95;15.85;;;0.70;99.90;;;;;;5048289;28;20596;-67
2024/03/08 02:21:55;;;;;;;32.30;15.88;;;0.80;99.90;;;;;;5047749;28;20568;-67
2024/03/08 02:24:23;;;;;;;31.92;15.00;;;0.70;99.90;;;;;;5048317;28;20238;-68
2024/03/08 02:26:51;;;;;;;30.17;15.52;;;0.60;99.90;;;;;;5052367;28;20323;-67
2024/03/08 02:29:19;;;;;;;36.55;18.50;;;0.40;99.90;;;;;;5047089;28;20222;-67
2024/03/08 02:31:47;;;;;;;31.75;17.50;;;0.30;99.90;;;;;;5046880;28;20240;-67
2024/03/08 02:34:15;;;;;;;31.27;15.40;;;0.30;99.90;;;;;;5046123;28;20275;-67
2024/03/08 02:36:43;;;;;;;29.02;14.98;;;0.30;99.90;;;;;;5046544;28;20235;-67
2024/03/08 02:39:13;;;;;;;30.10;14.82;;;0.30;99.90;;;;;;5046984;28;20226;-67
2024/03/08 02:41:42;;;;;;;32.28;15.35;;;0.40;99.90;;;;;;5046065;28;20230;-67
2024/03/08 02:44:12;;;;;;;31.55;14.95;;;0.40;99.90;;;;;;5041249;28;20226;-66
2024/03/08 02:46:40;;;;;;;30.35;15.30;;;0.50;99.90;;;;;;5047643;28;20227;-67
2024/03/08 02:49:08;;;;;;;33.90;16.92;;;0.50;99.90;;;;;;5046930;28;20776;-67
2024/03/08 02:51:36;;;;;;;33.55;16.88;;;0.30;99.90;;;;;;5043975;28;20822;-67
2024/03/08 02:54:04;;;;;;;34.58;16.10;;;0.20;99.90;;;;;;5046755;28;20233;-68
2024/03/08 02:56:35;;;;;;;27.85;14.13;;;0.30;99.90;;;;;;5048482;28;20309;-68
2024/03/08 02:59:03;;;;;;;30.70;15.40;;;0.30;99.90;;;;;;5046169;28;20232;-68
2024/03/08 03:01:31;;;;;;;29.60;14.25;;;0.20;99.90;;;;;;5042390;28;20231;-68
2024/03/08 03:03:59;;;;;;;32.13;16.10;;;0.10;99.90;;;;;;5048667;28;20829;-68
2024/03/08 03:06:28;;;;;;;30.45;13.70;;;0.00;99.90;;;;;;5047107;28;20198;-68
2024/03/08 03:08:57;;;;;;;28.67;14.25;;;-0.20;99.90;;;;;;5047014;28;21059;-68
2024/03/08 03:11:25;;;;;;;28.70;14.38;;;-0.30;99.90;;;;;;5046752;28;20288;-68
2024/03/08 03:13:55;;;;;;;29.30;13.70;;;-0.20;99.90;;;;;;5050635;28;20223;-69
2024/03/08 03:16:24;;;;;;;28.73;14.10;;;-0.20;99.90;;;;;;5046765;28;20774;-68
2024/03/08 03:18:52;;;;;;;33.53;14.45;;;-0.20;99.90;;;;;;5041085;28;20236;-68
2024/03/08 03:21:20;;;;;;;30.43;14.33;;;-0.20;99.90;;;;;;5045360;28;20204;-68
2024/03/08 03:23:49;;;;;;;26.23;13.32;;;-0.20;99.90;;;;;;5047145;28;20221;-68
2024/03/08 03:26:18;;;;;;;29.73;14.32;;;-0.10;99.90;;;;;;5046552;28;20202;-68
2024/03/08 03:28:46;;;;;;;29.52;14.50;;;-0.10;99.90;;;;;;5049087;28;20287;-68
2024/03/08 03:31:17;;;;;;;28.27;13.75;;;-0.10;99.90;;;;;;5045831;28;20219;-68
2024/03/08 03:33:45;;;;;;;26.85;13.52;;;-0.10;99.90;;;;;;5047952;28;20663;-68
2024/03/08 03:36:14;;;;;;;26.10;13.70;;;-0.10;99.90;;;;;;5043144;28;20748;-68
2024/03/08 03:38:42;;;;;;;27.75;14.32;;;-0.20;99.90;;;;;;5047479;28;20224;-68
2024/03/08 03:41:10;;;;;;;29.05;13.55;;;-0.30;99.90;;;;;;5045811;28;20232;-68
2024/03/08 03:43:39;;;;;;;26.02;13.77;;;-0.30;99.90;;;;;;5046726;28;20215;-68
2024/03/08 03:46:07;;;;;;;31.02;14.80;;;-0.30;99.90;;;;;;5046043;28;20292;-68
2024/03/08 03:48:37;;;;;;;32.08;15.18;;;-0.30;99.90;;;;;;5046384;28;20229;-68
2024/03/08 03:51:05;;;;;;;30.75;14.35;;;-0.30;99.90;;;;;;5040139;28;20426;-68
2024/03/08 03:53:33;;;;;;;29.98;14.70;;;-0.30;99.90;;;;;;5046010;28;20241;-68
2024/03/08 03:56:01;;;;;;;27.75;13.10;;;-0.10;99.90;;;;;;5046277;28;20583;-68
2024/03/08 03:58:29;;;;;;;30.13;13.60;;;-0.20;99.90;;;;;;5046548;28;20221;-68
2024/03/08 04:00:57;;;;;;;32.65;15.07;;;-0.30;99.90;;;;;;5038322;28;20646;-68
2024/03/08 04:03:25;;;;;;;25.98;14.25;;;-0.30;99.90;;;;;;5047490;28;20222;-68
2024/03/08 04:05:54;;;;;;;27.00;13.50;;;-0.30;99.90;;;;;;5045928;28;20242;-69
2024/03/08 04:08:23;;;;;;;25.55;12.55;;;-0.30;99.90;;;;;;5046222;28;20698;-68
2024/03/08 04:10:52;;;;;;;30.42;14.50;;;-0.30;99.90;;;;;;5048572;28;20255;-68
2024/03/08 04:13:21;;;;;;;31.10;15.05;;;-0.30;99.90;;;;;;5050486;28;20260;-68
2024/03/08 04:15:49;;;;;;;28.23;13.98;;;-0.20;99.90;;;;;;5055551;28;20336;-68
2024/03/08 04:18:18;;;;;;;25.92;13.43;;;-0.20;99.90;;;;;;5050041;28;20804;-68
2024/03/08 04:20:46;;;;;;;31.20;14.57;;;-0.10;99.90;;;;;;5048980;28;20229;-69
2024/03/08 04:23:17;;;;;;;30.88;14.60;;;-0.10;99.90;;;;;;5049472;28;20579;-68
2024/03/08 04:25:46;;;;;;;25.35;12.38;;;-0.20;99.90;;;;;;5050140;28;20224;-68
2024/03/08 04:28:14;;;;;;;25.00;11.85;;;-0.20;99.90;;;;;;5055846;28;20225;-68
2024/03/08 04:30:42;;;;;;;29.15;14.63;;;-0.30;99.90;;;;;;5049735;28;20265;-68
2024/03/08 04:33:11;;;;;;;25.85;13.65;;;-0.40;99.90;;;;;;5049454;28;21051;-69
2024/03/08 04:35:39;;;;;;;32.53;15.85;;;-0.40;99.90;;;;;;5048976;28;20233;-68
2024/03/08 04:38:07;;;;;;;29.88;13.88;;;-0.30;99.90;;;;;;5049699;28;20218;-66
2024/03/08 04:40:36;;;;;;;30.35;14.98;;;-0.30;99.90;;;;;;5054175;28;20229;-68
2024/03/08 04:43:05;;;;;;;29.38;14.90;;;-0.20;99.90;;;;;;5051398;28;20224;-67
2024/03/08 04:45:33;;;;;;;31.77;14.75;;;-0.20;99.90;;;;;;5049706;28;20311;-68
2024/03/08 04:48:01;;;;;;;31.90;15.10;;;-0.20;99.90;;;;;;5048851;28;20280;-68
2024/03/08 04:50:29;;;;;;;29.30;14.80;;;-0.20;99.90;;;;;;5049138;28;20268;-68
2024/03/08 04:52:58;;;;;;;27.63;12.80;;;-0.20;99.90;;;;;;5043295;28;20765;-69
2024/03/08 04:55:26;;;;;;;27.90;13.93;;;-0.20;99.90;;;;;;5048977;28;20249;-67
2024/03/08 04:57:55;;;;;;;26.80;13.35;;;-0.30;99.90;;;;;;5048637;28;20597;-68
2024/03/08 05:00:23;;;;;;;29.70;14.38;;;-0.40;99.90;;;;;;5053004;28;20284;-68
2024/03/08 05:02:53;;;;;;;27.77;13.02;;;-0.30;99.90;;;;;;5042371;28;20237;-68
2024/03/08 05:05:22;;;;;;;31.67;15.73;;;-0.30;99.90;;;;;;5048468;28;20283;-68
2024/03/08 05:07:50;;;;;;;30.23;14.57;;;-0.30;99.90;;;;;;5043021;28;20225;-68
2024/03/08 05:10:18;;;;;;;29.33;13.55;;;-0.20;99.90;;;;;;5047002;28;20230;-68
2024/03/08 05:12:47;;;;;;;31.33;14.75;;;-0.10;99.90;;;;;;5050107;28;20227;-68
2024/03/08 05:15:16;;;;;;;28.80;13.88;;;-0.10;99.90;;;;;;5049552;28;20232;-68
2024/03/08 05:17:44;;;;;;;35.15;15.60;;;-0.10;99.90;;;;;;5044952;28;20236;-68
2024/03/08 05:20:13;;;;;;;29.10;15.07;;;0.00;99.90;;;;;;5048037;28;20644;-68
2024/03/08 05:22:41;;;;;;;23.92;13.50;;;0.00;99.90;;;;;;5042852;28;20221;-68
2024/03/08 05:25:10;;;;;;;28.00;14.43;;;0.10;99.90;;;;;;5048965;28;20219;-69
2024/03/08 05:27:38;;;;;;;31.70;12.90;;;0.20;99.90;;;;;;5048265;28;20610;-68
2024/03/08 05:30:07;;;;;;;31.48;15.32;;;0.20;99.90;;;;;;5048871;28;20342;-67
2024/03/08 05:32:37;;;;;;;30.73;14.60;;;0.20;99.90;;;;;;5049199;28;20250;-68
2024/03/08 05:35:07;;;;;;;28.50;15.10;;;0.20;99.90;;;;;;5049241;28;20226;-68
2024/03/08 05:37:35;;;;;;;25.95;13.52;;;0.20;99.90;;;;;;5055698;28;20316;-68
2024/03/08 05:40:08;;;;;;;29.27;14.68;;;0.10;99.90;;;;;;5051871;28;20223;-68
2024/03/08 05:42:42;;;;;;;29.20;14.98;;;0.10;99.90;;;;;;5047366;28;20237;-68
2024/03/08 05:45:11;;;;;;;27.25;13.13;;;0.00;99.90;;;;;;5049344;28;20201;-68
2024/03/08 05:47:42;;;;;;;26.27;13.88;;;0.00;99.90;;;;;;5053133;28;20230;-68
2024/03/08 05:50:11;;;;;;;27.83;14.27;;;0.00;99.90;;;;;;5054322;28;20226;-68
2024/03/08 05:52:39;;;;;;;32.72;15.05;;;-0.10;99.90;;;;;;5052855;28;20576;-70
2024/03/08 05:55:09;;;;;;;28.98;14.00;;;0.00;99.90;;;;;;5053713;28;20202;-69
2024/03/08 05:57:39;;;;;;;29.27;15.20;;;-0.10;99.90;;;;;;5049271;28;20228;-69
2024/03/08 06:00:10;;;;;;;26.58;13.43;;;0.00;99.90;;;;;;5052314;28;20222;-67
2024/03/08 06:02:40;;;;;;;26.00;12.63;;;0.00;99.90;;;;;;5050127;28;20236;-69
2024/03/08 06:05:11;;;;;;;29.75;15.02;;;0.00;99.90;;;;;;5045363;28;20296;-69
2024/03/08 06:07:40;;;;;;;31.38;14.65;;;0.00;99.90;;;;;;5047020;28;20332;-69
2024/03/08 06:10:10;;;;;;;35.15;16.05;;;0.00;99.90;;;;;;5048698;28;20765;-68
2024/03/08 06:12:41;;;;;;;28.20;14.30;;;0.00;99.90;;;;;;5048487;28;20213;-69
2024/03/08 06:15:14;;;;;;;31.42;14.88;;;0.00;99.90;;;;;;5048759;28;20406;-68
2024/03/08 06:17:42;;;;;;;29.42;15.70;;;0.10;99.90;;;;;;5048184;28;20221;-69
2024/03/08 06:20:12;;;;;;;29.65;15.57;;;0.10;99.90;;;;;;5048367;28;20250;-68
2024/03/08 06:22:41;;;;;;;29.88;14.77;;;0.30;99.90;;;;;;5047874;28;20216;-68
2024/03/08 06:25:10;;;;;;;32.38;15.73;;;0.50;99.90;;;;;;5047565;28;20290;-68
2024/03/08 06:27:39;;;;;;;32.17;15.98;;;0.60;99.90;;;;;;5047893;28;20214;-69
2024/03/08 06:30:09;;;;;;;34.58;18.33;;;0.70;99.90;;;;;;5048236;28;20652;-69
2024/03/08 06:32:37;;;;;;;31.02;14.63;;;0.90;99.90;;;;;;5046577;28;20299;-69
2024/03/08 06:35:07;;;;;;;30.67;14.50;;;1.00;99.90;;;;;;5052165;28;20210;-69
2024/03/08 06:37:36;;;;;;;29.45;14.73;;;1.20;99.90;;;;;;5047745;28;20648;-68
2024/03/08 06:40:07;;;;;;;31.67;16.30;;;1.30;99.90;;;;;;5047556;28;20224;-67
2024/03/08 06:42:35;;;;;;;30.13;17.02;;;1.40;99.90;;;;;;5047369;28;20226;-67
2024/03/08 06:45:05;;;;;;;32.22;15.68;;;1.50;99.90;;;;;;5048330;28;20217;-68
2024/03/08 06:47:33;;;;;;;35.15;17.13;;;1.60;99.90;;;;;;5055404;28;20301;-68
2024/03/08 06:50:01;;;;;;;30.17;16.23;;;1.70;99.90;;;;;;5040493;28;20317;-67
2024/03/08 06:52:29;;;;;;;31.50;15.30;;;1.90;99.90;;;;;;5047766;28;21001;-68
2024/03/08 06:55:01;;;;;;;29.23;15.77;;;2.00;99.90;;;;;;5044416;28;20212;-68
2024/03/08 06:57:29;;;;;;;33.50;17.43;;;2.20;99.90;;;;;;5046555;28;21234;-68
2024/03/08 06:59:58;;;;;;;34.53;18.90;;;2.30;99.90;;;;;;5046177;28;20463;-68
2024/03/08 07:02:25;;;;;;;28.73;15.77;;;2.40;99.90;;;;;;5043163;28;20451;-68
2024/03/08 07:04:54;;;;;;;30.23;15.80;;;2.50;99.90;;;;;;5047873;28;20517;-68
2024/03/08 07:07:22;;;;;;;27.13;15.30;;;2.70;99.90;;;;;;5047491;28;20968;-68
2024/03/08 07:09:50;;;;;;;29.17;16.40;;;2.90;99.90;;;;;;5047086;28;20539;-69
2024/03/08 07:12:23;;;;;;;31.83;15.53;;;3.10;99.90;;;;;;5047602;28;20451;-69
2024/03/08 07:14:51;;;;;;;28.70;14.43;;;3.20;99.90;;;;;;5049427;28;20458;-69
2024/03/08 07:17:19;;;;;;;29.33;16.20;;;3.30;99.90;;;;;;5047681;28;20479;-69
2024/03/08 07:19:47;;;;;;;28.33;15.73;;;3.40;99.90;;;;;;5047350;28;20468;-69
2024/03/08 07:22:17;;;;;;;29.63;16.13;;;3.60;99.90;;;;;;5047602;28;20550;-70
2024/03/08 07:25:04;;;;;;;27.70;15.20;;;3.80;99.90;;;;;;5047384;28;20494;-69
2024/03/08 07:27:34;;;;;;;27.30;15.07;;;3.90;99.90;;;;;;5053961;28;20557;-69
2024/03/08 07:30:02;;;;;;;24.60;14.17;;;3.90;99.90;;;;;;5039332;28;20542;-69
2024/03/08 07:32:34;;;;;;;29.03;15.60;;;4.10;99.90;;;;;;4985127;28;20446;-69
2024/03/08 07:35:03;;;;;;;27.40;15.53;;;4.20;99.90;;;;;;4977880;28;20434;-70
2024/03/08 07:37:32;;;;;;;27.13;13.90;;;4.30;99.90;;;;;;4985449;28;21042;-69
2024/03/08 07:40:00;;;;;;;24.73;15.47;;;4.30;99.90;;;;;;4985101;28;20467;-69
2024/03/08 07:42:29;;;;;;;27.57;14.50;;;4.40;99.90;;;;;;4985675;28;20459;-69
2024/03/08 07:44:59;;;;;;;27.10;14.87;;;4.50;99.90;;;;;;4988198;28;21080;-69
2024/03/08 07:47:27;;;;;;;29.27;14.57;;;4.50;99.90;;;;;;4989576;28;20556;-69
2024/03/08 07:49:55;;;;;;;28.37;15.27;;;4.60;99.90;;;;;;4997268;28;20546;-69
2024/03/08 07:52:23;;;;;;;26.70;14.77;;;4.80;99.90;;;;;;5051119;28;20448;-70
2024/03/08 07:54:51;;;;;;;24.47;14.00;;;4.70;99.90;;;;;;5052462;28;21150;-70
2024/03/08 07:57:20;;;;;;;28.93;14.67;;;4.80;99.90;;;;;;5051296;28;20493;-69
2024/03/08 07:59:49;;;;;;;28.17;14.87;;;4.80;99.90;;;;;;5051001;28;20865;-69
2024/03/08 08:02:18;;;;;;;23.77;13.13;;;4.80;99.90;;;;;;5050598;28;20814;-70
2024/03/08 08:04:46;;;;;;;25.73;13.10;;;4.80;99.90;;;;;;5049570;28;20445;-69
2024/03/08 08:07:14;;;;;;;26.53;14.30;;;4.90;99.90;;;;;;5052532;28;20456;-70
2024/03/08 08:09:42;;;;;;;25.03;13.53;;;4.90;99.90;;;;;;5051393;28;20466;-69
2024/03/08 08:12:11;;;;;;;27.00;14.90;;;5.10;99.90;;;;;;5048999;28;20440;-70
2024/03/08 08:14:41;;;;;;;23.40;13.13;;;5.10;99.90;;;;;;5049140;28;20444;-70
2024/03/08 08:17:09;;;;;;;25.97;13.33;;;5.20;99.90;;;;;;5049346;28;21170;-69
2024/03/08 08:19:39;;;;;;;25.67;14.73;;;5.20;99.90;;;;;;5049537;28;20481;-69
2024/03/08 08:22:08;;;;;;;26.37;15.17;;;5.40;99.90;;;;;;5049508;28;20454;-70
2024/03/08 08:24:37;;;;;;;23.43;13.70;;;5.50;99.90;;;;;;5050371;28;20523;-69
2024/03/08 08:27:05;;;;;;;23.17;12.73;;;5.50;99.90;;;;;;5042782;28;20482;-70
2024/03/08 08:29:35;;;;;;;24.57;13.53;;;5.60;99.90;;;;;;5050757;28;21052;-70
2024/03/08 08:32:03;;;;;;;22.97;12.60;;;5.50;99.90;;;;;;5050483;28;20518;-71
2024/03/08 08:34:31;;;;;;;27.63;14.83;;;5.60;99.90;;;;;;5051288;28;20836;-69
2024/03/08 08:37:00;;;;;;;23.50;13.07;;;5.50;99.90;;;;;;5050432;28;20524;-69
2024/03/08 08:39:28;;;;;;;26.70;13.20;;;5.70;99.90;;;;;;5050415;28;21000;-69
2024/03/08 08:41:56;;;;;;;23.40;13.90;;;5.60;99.90;;;;;;5050272;28;20597;-69
2024/03/08 08:44:25;;;;;;;26.30;15.00;;;5.60;99.90;;;;;;5050553;28;20840;-69
2024/03/08 08:46:54;;;;;;;27.60;15.57;;;5.60;99.90;;;;;;5050268;28;20509;-70
2024/03/08 08:49:32;;;;;;;24.37;14.43;;;5.50;99.90;;;;;;5050091;28;20840;-69
2024/03/08 08:52:03;;;;;;;23.40;13.60;;;5.40;99.90;;;;;;5050139;28;20526;-69
2024/03/08 08:54:42;;;;;;;27.37;15.37;;;5.50;99.90;;;;;;5050263;28;20944;-67
2024/03/08 08:57:10;;;;;;;25.83;13.03;;;5.50;99.90;;;;;;5049688;28;20439;-67
2024/03/08 08:59:39;;;;;;;25.13;13.63;;;5.60;99.90;;;;;;5049935;28;20486;-67
2024/03/08 09:02:08;;;;;;;24.80;13.00;;;5.70;99.90;;;;;;5048622;28;20462;-70
2024/03/08 09:04:37;;;;;;;24.27;12.80;;;5.80;99.90;;;;;;5046696;28;20533;-70
2024/03/08 09:07:07;;;;;;;24.23;13.87;;;5.70;99.90;;;;;;5049996;28;20933;-69
2024/03/08 09:09:34;;;;;;;24.60;14.07;;;5.70;99.90;;;;;;5048000;28;20837;-69
2024/03/08 09:12:02;;;;;;;24.60;12.70;;;5.90;99.90;;;;;;5049624;28;20446;-69
2024/03/08 09:14:31;;;;;;;22.70;12.43;;;6.00;99.90;;;;;;5049717;28;20492;-70
2024/03/08 09:16:59;;;;;;;22.10;13.10;;;5.90;99.90;;;;;;5050017;28;20450;-69
2024/03/08 09:19:28;;;;;;;24.30;13.50;;;5.90;99.90;;;;;;5050284;28;20485;-69
2024/03/08 09:21:56;;;;;;;26.20;13.27;;;5.90;99.90;;;;;;5049549;28;20448;-69
2024/03/08 09:24:25;;;;;;;23.10;13.93;;;6.00;99.90;;;;;;5049786;28;20937;-70
2024/03/08 09:26:53;;;;;;;26.17;14.40;;;6.20;99.90;;;;;;5049255;28;20472;-69
2024/03/08 09:29:21;;;;;;;22.10;13.40;;;6.30;99.90;;;;;;5052080;28;20487;-69
2024/03/08 09:31:49;;;;;;;25.40;13.70;;;6.40;99.90;;;;;;5051408;28;20451;-68
2024/03/08 09:34:18;;;;;;;21.73;11.80;;;6.50;99.90;;;;;;5049785;28;20901;-69
2024/03/08 09:36:52;;;;;;;24.83;13.73;;;6.60;99.90;;;;;;5049449;28;20444;-69
2024/03/08 09:39:20;;;;;;;23.40;12.60;;;6.60;99.90;;;;;;5049067;28;20978;-69
2024/03/08 09:41:52;;;;;;;24.53;13.50;;;6.70;99.90;;;;;;5048821;28;20532;-69
2024/03/08 09:44:20;;;;;;;22.87;12.80;;;6.80;99.90;;;;;;5049584;28;20443;-69
2024/03/08 09:46:48;;;;;;;22.27;13.30;;;7.10;99.90;;;;;;5050565;28;20460;-69
2024/03/08 09:49:16;;;;;;;22.30;13.00;;;7.20;99.90;;;;;;5049278;28;20456;-67
2024/03/08 09:51:45;;;;;;;23.93;13.43;;;7.10;99.90;;;;;;5048455;28;20498;-70
2024/03/08 09:54:16;;;;;;;22.60;12.47;;;7.30;99.90;;;;;;5049119;28;20535;-70
2024/03/08 09:56:53;;;;;;;22.33;12.17;;;7.40;99.90;;;;;;5049135;28;20476;-69
2024/03/08 09:59:43;;;;;;;23.63;13.90;;;7.60;99.90;;;;;;5048856;28;20511;-69
2024/03/08 10:02:18;;;;;;;25.70;13.70;;;7.70;99.90;;;;;;5044621;28;20812;-69
2024/03/08 10:04:50;;;;;;;22.50;11.93;;;7.80;99.90;;;;;;5048593;28;20443;-69
2024/03/08 10:07:18;;;;;;;24.03;13.70;;;7.90;99.90;;;;;;5047503;28;20439;-69
2024/03/08 10:09:49;;;;;;;23.67;12.43;;;7.90;99.90;;;;;;5048233;28;20491;-70
2024/03/08 10:12:19;;;;;;;24.77;13.33;;;7.80;99.90;;;;;;5048358;28;20444;-69
2024/03/08 10:14:50;;;;;;;22.60;12.97;;;7.80;99.90;;;;;;5048130;28;20451;-69
2024/03/08 10:17:20;;;;;;;22.57;13.20;;;7.80;99.90;;;;;;5049703;28;20890;-69
2024/03/08 10:19:52;;;;;;;21.60;13.00;;;7.80;99.90;;;;;;5047703;28;20490;-69
2024/03/08 10:22:23;;;;;;;23.90;12.93;;;7.70;99.90;;;;;;5048036;28;20453;-69
2024/03/08 10:24:51;;;;;;;20.30;12.03;;;7.80;99.90;;;;;;5048174;28;20448;-69
2024/03/08 10:27:21;;;;;;;23.27;12.50;;;7.90;99.90;;;;;;5048049;28;20472;-69
2024/03/08 10:29:51;;;;;;;23.63;12.67;;;8.00;99.90;;;;;;5047942;28;20563;-69
2024/03/08 10:32:20;;;;;;;24.60;12.93;;;7.90;99.90;;;;;;5052664;28;20451;-70
2024/03/08 10:34:50;;;;;;;20.83;12.87;;;8.10;99.90;;;;;;5050411;28;20557;-69
2024/03/08 10:37:24;;;;;;;20.43;11.60;;;8.10;99.90;;;;;;5048252;28;20855;-69
2024/03/08 10:40:10;;;;;;;22.27;12.67;;;8.10;99.90;;;;;;5047635;28;20585;-70
2024/03/08 10:42:48;;;;;;;21.43;12.33;;;8.20;99.90;;;;;;5048017;28;20452;-68
2024/03/08 10:45:23;;;;;;;21.40;12.10;;;8.40;99.90;;;;;;5048399;28;20551;-69
2024/03/08 10:48:05;;;;;;;21.93;13.40;;;8.50;99.90;;;;;;5052269;28;20444;-69
2024/03/08 10:50:35;;;;;;;24.50;13.03;;;8.60;99.90;;;;;;5047205;28;20590;-69
2024/03/08 10:53:06;;;;;;;20.93;12.37;;;8.50;99.90;;;;;;5047364;28;21069;-69
2024/03/08 10:55:37;;;;;;;22.97;13.30;;;8.80;99.90;;;;;;5048053;28;20532;-70
2024/03/08 10:58:08;;;;;;;26.10;13.57;;;9.10;99.90;;;;;;5047930;28;20474;-67
2024/03/08 11:00:36;;;;;;;22.50;13.40;;;9.30;99.90;;;;;;5047718;28;21026;-67
2024/03/08 11:03:05;;;;;;;25.00;13.30;;;9.60;99.90;;;;;;5047440;28;20452;-69
2024/03/08 11:05:38;;;;;;;22.17;13.07;;;9.80;98.90;;;;;;5047948;28;20526;-66
2024/03/08 11:08:21;;;;;;;28.00;13.40;;;9.70;98.90;;;;;;5048360;28;20914;-67
2024/03/08 11:10:51;;;;;;;22.67;13.90;;;9.80;98.80;;;;;;5047299;28;20451;-69
2024/03/08 11:13:40;;;;;;;25.57;14.90;;;10.20;97.60;;;;;;5047521;28;20559;-67
2024/03/08 11:16:09;;;;;;;23.20;13.87;;;10.40;96.20;;;;;;5039514;28;20472;-67
2024/03/08 11:18:38;;;;;;;25.90;15.30;;;10.50;96.80;;;;;;5047431;28;21005;-68
2024/03/08 11:21:12;;;;;;;22.77;13.73;;;10.50;94.00;;;;;;5048207;28;20545;-69
2024/03/08 11:23:40;;;;;;;23.00;13.50;;;10.20;93.90;;;;;;5046751;28;20950;-70
2024/03/08 11:26:19;;;;;;;26.57;14.00;;;9.80;95.20;;;;;;5041167;28;20444;-69
2024/03/08 11:28:51;;;;;;;22.30;12.60;;;9.50;95.50;;;;;;5046051;28;20471;-66
2024/03/08 11:31:26;;;;;;;22.70;12.63;;;9.50;96.20;;;;;;5047241;28;20893;-68
2024/03/08 11:33:56;;;;;;;24.73;13.90;;;9.60;96.00;;;;;;5047102;28;20475;-67
2024/03/08 11:36:25;;;;;;;21.37;13.07;;;10.50;94.70;;;;;;5054485;28;20468;-66
2024/03/08 11:38:55;;;;;;;26.60;15.17;;;11.90;92.40;;;;;;5047252;28;20553;-66
2024/03/08 11:41:24;;;;;;;22.97;13.83;;;12.80;89.60;;;;;;5046662;28;20485;-66
2024/03/08 11:44:06;;;;;;;24.20;13.23;;;13.60;83.40;;;;;;5045959;28;21106;-67
2024/03/08 11:46:34;;;;;;;24.53;13.37;;;14.30;77.60;;;;;;5047346;28;20475;-66
2024/03/08 11:49:03;;;;;;;23.00;13.13;;;14.90;72.80;;;;;;5047463;28;20468;-67
2024/03/08 11:51:32;;;;;;;23.67;13.57;;;15.10;70.80;;;;;;5042926;28;20456;-66
2024/03/08 11:54:00;;;;;;;20.67;13.50;;;15.50;67.60;;;;;;5044482;28;20459;-66
2024/03/08 11:56:29;;;;;;;24.40;14.33;;;16.10;65.70;;;;;;5045374;28;20996;-66
2024/03/08 11:58:58;;;;;;;21.70;13.73;;;16.30;62.60;;;;;;5045437;28;20487;-67
2024/03/08 12:01:27;;;;;;;23.87;12.90;;;16.20;60.50;;;;;;5044385;28;20530;-66
2024/03/08 12:03:58;;;;;;;22.50;14.00;;;16.40;59.20;;;;;;5045677;28;20471;-67
2024/03/08 12:06:27;;;;;;;23.53;14.60;;;16.70;60.80;;;;;;5044737;28;21232;-67
2024/03/08 12:08:55;;;;;;;24.03;14.13;;;17.10;59.30;;;;;;5046899;28;20518;-66
2024/03/08 12:11:23;;;;;;;27.07;15.40;;;17.30;57.30;;;;;;5044022;28;20530;-66
2024/03/08 12:13:53;;;;;;;22.53;13.80;;;17.50;56.50;;;;;;5044409;28;21159;-67
2024/03/08 12:16:22;;;;;;;23.63;14.83;;;17.70;56.40;;;;;;5045728;28;20604;-67
2024/03/08 12:18:53;;;;;;;24.10;13.83;;;17.80;55.90;;;;;;5045313;28;20479;-67
2024/03/08 12:21:23;;;;;;;23.37;14.60;;;18.20;54.70;;;;;;5046027;28;20506;-67
2024/03/08 12:24:04;;;;;;;22.90;14.47;;;18.50;53.00;;;;;;5045662;28;20448;-66
2024/03/08 12:26:33;;;;;;;21.30;13.17;;;18.90;52.40;;;;;;5046910;28;20450;-67
2024/03/08 12:29:16;;;;;;;22.10;14.57;;;19.30;51.10;;;;;;5051145;28;20549;-67
2024/03/08 12:31:44;;;;;;;22.80;15.00;;;19.30;50.30;;;;;;5054733;28;20529;-66
2024/03/08 12:34:15;;;;;;;24.87;15.20;;;19.40;50.90;;;;;;5051176;28;20933;-67
2024/03/08 12:36:48;;;;;;;21.10;14.07;;;19.40;50.70;;;;;;5051881;28;20535;-66
2024/03/08 12:39:22;;;;;;;24.97;15.97;;;19.80;49.20;;;;;;5051997;28;20903;-67
2024/03/08 12:41:51;;;;;;;21.27;14.20;;;20.20;50.00;;;;;;5051713;28;20474;-68
2024/03/08 12:44:21;;;;;;;20.00;13.27;;;20.30;49.40;;;;;;5049847;28;20436;-67